sensor_id;sensor_type;location;lat;lon;timestamp;P1;durP1;ratioP1;P2;durP2;ratioP2
25615;SDS011;13482;48.234;13.006;2023-10-31T00:00:21;3.55;;;2.70;;
25615;SDS011;13482;48.234;13.006;2023-10-31T00:02:48;3.35;;;2.60;;
25615;SDS011;13482;48.234;13.006;2023-10-31T00:05:16;3.78;;;2.50;;
25615;SDS011;13482;48.234;13.006;2023-10-31T00:07:47;3.08;;;2.50;;
25615;SDS011;13482;48.234;13.006;2023-10-31T00:10:14;3.83;;;2.42;;
25615;SDS011;13482;48.234;13.006;2023-10-31T00:12:42;3.10;;;2.47;;
25615;SDS011;13482;48.234;13.006;2023-10-31T00:15:09;2.85;;;2.40;;
25615;SDS011;13482;48.234;13.006;2023-10-31T00:17:37;3.38;;;2.45;;
25615;SDS011;13482;48.234;13.006;2023-10-31T00:20:05;2.70;;;2.05;;
25615;SDS011;13482;48.234;13.006;2023-10-31T00:22:34;2.85;;;2.25;;
25615;SDS011;13482;48.234;13.006;2023-10-31T00:25:01;3.35;;;2.72;;
25615;SDS011;13482;48.234;13.006;2023-10-31T00:27:29;2.80;;;2.25;;
25615;SDS011;13482;48.234;13.006;2023-10-31T00:29:57;2.80;;;2.10;;
25615;SDS011;13482;48.234;13.006;2023-10-31T00:32:24;3.67;;;2.20;;
25615;SDS011;13482;48.234;13.006;2023-10-31T00:34:52;2.50;;;1.92;;
25615;SDS011;13482;48.234;13.006;2023-10-31T00:37:20;2.80;;;1.92;;
25615;SDS011;13482;48.234;13.006;2023-10-31T00:39:47;3.28;;;2.33;;
25615;SDS011;13482;48.234;13.006;2023-10-31T00:42:15;2.70;;;2.10;;
25615;SDS011;13482;48.234;13.006;2023-10-31T00:44:43;3.00;;;2.17;;
25615;SDS011;13482;48.234;13.006;2023-10-31T00:47:10;2.90;;;1.98;;
25615;SDS011;13482;48.234;13.006;2023-10-31T00:49:37;2.67;;;2.10;;
25615;SDS011;13482;48.234;13.006;2023-10-31T00:52:05;2.78;;;1.90;;
25615;SDS011;13482;48.234;13.006;2023-10-31T00:54:32;2.45;;;1.75;;
25615;SDS011;13482;48.234;13.006;2023-10-31T00:57:00;1.95;;;1.48;;
25615;SDS011;13482;48.234;13.006;2023-10-31T00:59:27;2.40;;;1.50;;
25615;SDS011;13482;48.234;13.006;2023-10-31T01:01:55;1.98;;;1.42;;
25615;SDS011;13482;48.234;13.006;2023-10-31T01:04:22;2.35;;;1.50;;
25615;SDS011;13482;48.234;13.006;2023-10-31T01:06:50;1.73;;;1.30;;
25615;SDS011;13482;48.234;13.006;2023-10-31T01:09:17;2.17;;;1.38;;
25615;SDS011;13482;48.234;13.006;2023-10-31T01:11:45;1.55;;;1.13;;
25615;SDS011;13482;48.234;13.006;2023-10-31T01:14:12;2.13;;;1.10;;
25615;SDS011;13482;48.234;13.006;2023-10-31T01:16:40;1.30;;;0.95;;
25615;SDS011;13482;48.234;13.006;2023-10-31T01:19:08;1.58;;;0.90;;
25615;SDS011;13482;48.234;13.006;2023-10-31T01:21:36;1.35;;;0.95;;
25615;SDS011;13482;48.234;13.006;2023-10-31T01:24:03;2.00;;;0.93;;
25615;SDS011;13482;48.234;13.006;2023-10-31T01:26:31;1.83;;;0.73;;
25615;SDS011;13482;48.234;13.006;2023-10-31T01:28:59;1.48;;;0.88;;
25615;SDS011;13482;48.234;13.006;2023-10-31T01:31:27;1.15;;;0.70;;
25615;SDS011;13482;48.234;13.006;2023-10-31T01:33:54;0.88;;;0.60;;
25615;SDS011;13482;48.234;13.006;2023-10-31T01:36:25;0.88;;;0.50;;
25615;SDS011;13482;48.234;13.006;2023-10-31T01:38:54;0.90;;;0.50;;
25615;SDS011;13482;48.234;13.006;2023-10-31T01:41:21;0.52;;;0.38;;
25615;SDS011;13482;48.234;13.006;2023-10-31T01:43:48;0.38;;;0.30;;
25615;SDS011;13482;48.234;13.006;2023-10-31T01:46:16;0.60;;;0.30;;
25615;SDS011;13482;48.234;13.006;2023-10-31T01:48:43;0.38;;;0.30;;
25615;SDS011;13482;48.234;13.006;2023-10-31T01:51:11;0.80;;;0.25;;
25615;SDS011;13482;48.234;13.006;2023-10-31T01:53:39;0.43;;;0.20;;
25615;SDS011;13482;48.234;13.006;2023-10-31T01:56:07;0.70;;;0.20;;
25615;SDS011;13482;48.234;13.006;2023-10-31T01:58:35;0.52;;;0.20;;
25615;SDS011;13482;48.234;13.006;2023-10-31T02:01:04;0.32;;;0.15;;
25615;SDS011;13482;48.234;13.006;2023-10-31T02:03:33;0.15;;;0.10;;
25615;SDS011;13482;48.234;13.006;2023-10-31T02:06:01;0.28;;;0.10;;
25615;SDS011;13482;48.234;13.006;2023-10-31T02:08:29;0.20;;;0.20;;
25615;SDS011;13482;48.234;13.006;2023-10-31T02:10:57;0.10;;;0.10;;
25615;SDS011;13482;48.234;13.006;2023-10-31T02:13:24;0.45;;;0.10;;
25615;SDS011;13482;48.234;13.006;2023-10-31T02:15:52;0.40;;;0.10;;
25615;SDS011;13482;48.234;13.006;2023-10-31T02:18:20;0.13;;;0.10;;
25615;SDS011;13482;48.234;13.006;2023-10-31T02:20:47;0.32;;;0.10;;
25615;SDS011;13482;48.234;13.006;2023-10-31T02:23:15;0.10;;;0.05;;
25615;SDS011;13482;48.234;13.006;2023-10-31T02:25:43;0.00;;;0.00;;
25615;SDS011;13482;48.234;13.006;2023-10-31T02:28:10;0.30;;;0.10;;
25615;SDS011;13482;48.234;13.006;2023-10-31T02:30:38;0.10;;;0.10;;
25615;SDS011;13482;48.234;13.006;2023-10-31T02:33:05;0.08;;;0.03;;
25615;SDS011;13482;48.234;13.006;2023-10-31T02:35:35;0.30;;;0.10;;
25615;SDS011;13482;48.234;13.006;2023-10-31T02:38:02;1.17;;;0.00;;
25615;SDS011;13482;48.234;13.006;2023-10-31T02:40:30;0.00;;;0.00;;
25615;SDS011;13482;48.234;13.006;2023-10-31T02:42:58;0.20;;;0.10;;
25615;SDS011;13482;48.234;13.006;2023-10-31T02:45:25;0.15;;;0.00;;
25615;SDS011;13482;48.234;13.006;2023-10-31T02:47:52;0.20;;;0.00;;
25615;SDS011;13482;48.234;13.006;2023-10-31T02:50:22;0.10;;;0.00;;
25615;SDS011;13482;48.234;13.006;2023-10-31T02:52:49;0.00;;;0.00;;
25615;SDS011;13482;48.234;13.006;2023-10-31T02:55:17;0.68;;;0.00;;
25615;SDS011;13482;48.234;13.006;2023-10-31T02:57:44;0.43;;;0.00;;
25615;SDS011;13482;48.234;13.006;2023-10-31T03:00:12;0.10;;;0.00;;
25615;SDS011;13482;48.234;13.006;2023-10-31T03:02:41;0.00;;;0.00;;
25615;SDS011;13482;48.234;13.006;2023-10-31T03:05:08;0.15;;;0.00;;
25615;SDS011;13482;48.234;13.006;2023-10-31T03:07:36;0.10;;;0.10;;
25615;SDS011;13482;48.234;13.006;2023-10-31T03:10:03;0.40;;;0.10;;
25615;SDS011;13482;48.234;13.006;2023-10-31T03:12:32;0.35;;;0.10;;
25615;SDS011;13482;48.234;13.006;2023-10-31T03:14:59;0.00;;;0.00;;
25615;SDS011;13482;48.234;13.006;2023-10-31T03:17:27;0.60;;;0.10;;
25615;SDS011;13482;48.234;13.006;2023-10-31T03:19:55;0.93;;;0.10;;
25615;SDS011;13482;48.234;13.006;2023-10-31T03:22:22;0.10;;;0.00;;
25615;SDS011;13482;48.234;13.006;2023-10-31T03:24:50;0.08;;;0.00;;
25615;SDS011;13482;48.234;13.006;2023-10-31T03:27:17;0.40;;;0.10;;
25615;SDS011;13482;48.234;13.006;2023-10-31T03:29:45;0.30;;;0.08;;
25615;SDS011;13482;48.234;13.006;2023-10-31T03:32:12;0.25;;;0.00;;
25615;SDS011;13482;48.234;13.006;2023-10-31T03:34:42;0.63;;;0.10;;
25615;SDS011;13482;48.234;13.006;2023-10-31T03:37:09;0.63;;;0.00;;
25615;SDS011;13482;48.234;13.006;2023-10-31T03:39:37;0.25;;;0.10;;
25615;SDS011;13482;48.234;13.006;2023-10-31T03:42:04;0.40;;;0.00;;
25615;SDS011;13482;48.234;13.006;2023-10-31T03:44:32;0.20;;;0.03;;
25615;SDS011;13482;48.234;13.006;2023-10-31T03:47:00;0.10;;;0.00;;
25615;SDS011;13482;48.234;13.006;2023-10-31T03:49:27;0.00;;;0.00;;
25615;SDS011;13482;48.234;13.006;2023-10-31T03:51:55;0.00;;;0.00;;
25615;SDS011;13482;48.234;13.006;2023-10-31T03:54:22;0.43;;;0.13;;
25615;SDS011;13482;48.234;13.006;2023-10-31T03:56:49;0.10;;;0.00;;
25615;SDS011;13482;48.234;13.006;2023-10-31T03:59:17;0.15;;;0.00;;
25615;SDS011;13482;48.234;13.006;2023-10-31T04:01:45;0.20;;;0.03;;
25615;SDS011;13482;48.234;13.006;2023-10-31T04:04:12;0.60;;;0.00;;
25615;SDS011;13482;48.234;13.006;2023-10-31T04:06:40;0.08;;;0.00;;
25615;SDS011;13482;48.234;13.006;2023-10-31T04:09:08;0.00;;;0.00;;
25615;SDS011;13482;48.234;13.006;2023-10-31T04:11:36;0.00;;;0.00;;
25615;SDS011;13482;48.234;13.006;2023-10-31T04:14:05;0.52;;;0.00;;
25615;SDS011;13482;48.234;13.006;2023-10-31T04:16:37;0.10;;;0.00;;
25615;SDS011;13482;48.234;13.006;2023-10-31T04:19:07;0.10;;;0.00;;
25615;SDS011;13482;48.234;13.006;2023-10-31T04:21:34;0.10;;;0.00;;
25615;SDS011;13482;48.234;13.006;2023-10-31T04:24:03;0.13;;;0.00;;
25615;SDS011;13482;48.234;13.006;2023-10-31T04:26:32;0.00;;;0.00;;
25615;SDS011;13482;48.234;13.006;2023-10-31T04:29:00;0.00;;;0.00;;
25615;SDS011;13482;48.234;13.006;2023-10-31T04:31:27;0.35;;;0.00;;
25615;SDS011;13482;48.234;13.006;2023-10-31T04:34:07;0.00;;;0.00;;
25615;SDS011;13482;48.234;13.006;2023-10-31T04:36:36;0.00;;;0.00;;
25615;SDS011;13482;48.234;13.006;2023-10-31T04:39:03;0.00;;;0.00;;
25615;SDS011;13482;48.234;13.006;2023-10-31T04:41:31;0.10;;;0.10;;
25615;SDS011;13482;48.234;13.006;2023-10-31T04:43:58;0.08;;;0.00;;
25615;SDS011;13482;48.234;13.006;2023-10-31T04:46:26;0.00;;;0.00;;
25615;SDS011;13482;48.234;13.006;2023-10-31T04:48:54;0.00;;;0.00;;
25615;SDS011;13482;48.234;13.006;2023-10-31T04:51:21;0.00;;;0.00;;
25615;SDS011;13482;48.234;13.006;2023-10-31T04:53:49;0.65;;;0.10;;
25615;SDS011;13482;48.234;13.006;2023-10-31T04:56:16;0.25;;;0.00;;
25615;SDS011;13482;48.234;13.006;2023-10-31T04:58:45;0.08;;;0.00;;
25615;SDS011;13482;48.234;13.006;2023-10-31T05:01:13;0.00;;;0.00;;
25615;SDS011;13482;48.234;13.006;2023-10-31T05:03:41;0.00;;;0.00;;
25615;SDS011;13482;48.234;13.006;2023-10-31T05:06:08;0.10;;;0.00;;
25615;SDS011;13482;48.234;13.006;2023-10-31T05:08:36;0.20;;;0.10;;
25615;SDS011;13482;48.234;13.006;2023-10-31T05:11:04;0.00;;;0.00;;
25615;SDS011;13482;48.234;13.006;2023-10-31T05:13:31;0.20;;;0.10;;
25615;SDS011;13482;48.234;13.006;2023-10-31T05:15:59;0.00;;;0.00;;
25615;SDS011;13482;48.234;13.006;2023-10-31T05:18:26;0.40;;;0.10;;
25615;SDS011;13482;48.234;13.006;2023-10-31T05:20:53;0.10;;;0.00;;
25615;SDS011;13482;48.234;13.006;2023-10-31T05:23:20;0.25;;;0.10;;
25615;SDS011;13482;48.234;13.006;2023-10-31T05:25:48;0.30;;;0.05;;
25615;SDS011;13482;48.234;13.006;2023-10-31T05:28:15;0.10;;;0.00;;
25615;SDS011;13482;48.234;13.006;2023-10-31T05:30:43;0.08;;;0.00;;
25615;SDS011;13482;48.234;13.006;2023-10-31T05:33:10;0.15;;;0.10;;
25615;SDS011;13482;48.234;13.006;2023-10-31T05:35:38;0.40;;;0.15;;
25615;SDS011;13482;48.234;13.006;2023-10-31T05:38:05;0.25;;;0.10;;
25615;SDS011;13482;48.234;13.006;2023-10-31T05:40:32;0.10;;;0.10;;
25615;SDS011;13482;48.234;13.006;2023-10-31T05:43:01;0.00;;;0.00;;
25615;SDS011;13482;48.234;13.006;2023-10-31T05:45:30;0.32;;;0.20;;
25615;SDS011;13482;48.234;13.006;2023-10-31T05:47:57;0.13;;;0.10;;
25615;SDS011;13482;48.234;13.006;2023-10-31T05:50:25;0.00;;;0.00;;
25615;SDS011;13482;48.234;13.006;2023-10-31T05:52:52;0.30;;;0.08;;
25615;SDS011;13482;48.234;13.006;2023-10-31T05:55:20;0.28;;;0.00;;
25615;SDS011;13482;48.234;13.006;2023-10-31T05:57:47;0.43;;;0.00;;
25615;SDS011;13482;48.234;13.006;2023-10-31T06:00:15;0.03;;;0.00;;
25615;SDS011;13482;48.234;13.006;2023-10-31T06:02:43;0.08;;;0.00;;
25615;SDS011;13482;48.234;13.006;2023-10-31T06:05:11;0.00;;;0.00;;
25615;SDS011;13482;48.234;13.006;2023-10-31T06:07:39;0.60;;;0.30;;
25615;SDS011;13482;48.234;13.006;2023-10-31T06:10:06;0.20;;;0.10;;
25615;SDS011;13482;48.234;13.006;2023-10-31T06:12:34;0.30;;;0.20;;
25615;SDS011;13482;48.234;13.006;2023-10-31T06:15:02;0.73;;;0.25;;
25615;SDS011;13482;48.234;13.006;2023-10-31T06:17:30;1.98;;;1.10;;
25615;SDS011;13482;48.234;13.006;2023-10-31T06:20:01;2.15;;;1.58;;
25615;SDS011;13482;48.234;13.006;2023-10-31T06:22:29;2.53;;;1.80;;
25615;SDS011;13482;48.234;13.006;2023-10-31T06:24:57;2.22;;;1.50;;
25615;SDS011;13482;48.234;13.006;2023-10-31T06:27:25;1.05;;;0.75;;
25615;SDS011;13482;48.234;13.006;2023-10-31T06:29:52;1.30;;;0.70;;
25615;SDS011;13482;48.234;13.006;2023-10-31T06:32:41;0.85;;;0.50;;
25615;SDS011;13482;48.234;13.006;2023-10-31T06:35:09;0.90;;;0.43;;
25615;SDS011;13482;48.234;13.006;2023-10-31T06:37:37;0.28;;;0.20;;
25615;SDS011;13482;48.234;13.006;2023-10-31T06:40:05;0.32;;;0.20;;
25615;SDS011;13482;48.234;13.006;2023-10-31T06:42:35;0.60;;;0.20;;
25615;SDS011;13482;48.234;13.006;2023-10-31T06:45:04;1.00;;;0.20;;
25615;SDS011;13482;48.234;13.006;2023-10-31T06:47:34;0.17;;;0.10;;
25615;SDS011;13482;48.234;13.006;2023-10-31T06:50:01;0.50;;;0.20;;
25615;SDS011;13482;48.234;13.006;2023-10-31T06:52:29;0.40;;;0.20;;
25615;SDS011;13482;48.234;13.006;2023-10-31T06:54:57;0.40;;;0.13;;
25615;SDS011;13482;48.234;13.006;2023-10-31T06:57:24;0.20;;;0.13;;
25615;SDS011;13482;48.234;13.006;2023-10-31T06:59:52;0.73;;;0.20;;
25615;SDS011;13482;48.234;13.006;2023-10-31T07:02:20;0.60;;;0.25;;
25615;SDS011;13482;48.234;13.006;2023-10-31T07:04:47;0.65;;;0.20;;
25615;SDS011;13482;48.234;13.006;2023-10-31T07:07:16;0.50;;;0.30;;
25615;SDS011;13482;48.234;13.006;2023-10-31T07:09:43;0.63;;;0.20;;
25615;SDS011;13482;48.234;13.006;2023-10-31T07:12:11;0.20;;;0.10;;
25615;SDS011;13482;48.234;13.006;2023-10-31T07:14:38;1.00;;;0.30;;
25615;SDS011;13482;48.234;13.006;2023-10-31T07:17:06;0.63;;;0.30;;
25615;SDS011;13482;48.234;13.006;2023-10-31T07:19:33;0.85;;;0.20;;
25615;SDS011;13482;48.234;13.006;2023-10-31T07:22:01;0.52;;;0.30;;
25615;SDS011;13482;48.234;13.006;2023-10-31T07:24:29;0.38;;;0.13;;
25615;SDS011;13482;48.234;13.006;2023-10-31T07:26:57;0.43;;;0.20;;
25615;SDS011;13482;48.234;13.006;2023-10-31T07:29:24;1.05;;;0.20;;
25615;SDS011;13482;48.234;13.006;2023-10-31T07:31:52;0.15;;;0.10;;
25615;SDS011;13482;48.234;13.006;2023-10-31T07:34:19;0.40;;;0.20;;
25615;SDS011;13482;48.234;13.006;2023-10-31T07:36:47;1.05;;;0.30;;
25615;SDS011;13482;48.234;13.006;2023-10-31T07:39:14;0.40;;;0.10;;
25615;SDS011;13482;48.234;13.006;2023-10-31T07:41:41;0.38;;;0.20;;
25615;SDS011;13482;48.234;13.006;2023-10-31T07:44:09;1.35;;;0.30;;
25615;SDS011;13482;48.234;13.006;2023-10-31T07:46:37;0.40;;;0.10;;
25615;SDS011;13482;48.234;13.006;2023-10-31T07:49:04;0.10;;;0.10;;
25615;SDS011;13482;48.234;13.006;2023-10-31T07:51:31;0.82;;;0.20;;
25615;SDS011;13482;48.234;13.006;2023-10-31T07:53:59;0.63;;;0.30;;
25615;SDS011;13482;48.234;13.006;2023-10-31T07:56:26;0.28;;;0.15;;
25615;SDS011;13482;48.234;13.006;2023-10-31T07:58:54;1.27;;;0.40;;
25615;SDS011;13482;48.234;13.006;2023-10-31T08:01:22;0.73;;;0.40;;
25615;SDS011;13482;48.234;13.006;2023-10-31T08:03:49;0.82;;;0.57;;
25615;SDS011;13482;48.234;13.006;2023-10-31T08:06:17;0.45;;;0.20;;
25615;SDS011;13482;48.234;13.006;2023-10-31T08:08:44;0.45;;;0.20;;
25615;SDS011;13482;48.234;13.006;2023-10-31T08:11:12;0.57;;;0.30;;
25615;SDS011;13482;48.234;13.006;2023-10-31T08:13:40;0.82;;;0.28;;
25615;SDS011;13482;48.234;13.006;2023-10-31T08:16:08;0.43;;;0.25;;
25615;SDS011;13482;48.234;13.006;2023-10-31T08:18:36;0.30;;;0.20;;
25615;SDS011;13482;48.234;13.006;2023-10-31T08:21:04;0.35;;;0.22;;
25615;SDS011;13482;48.234;13.006;2023-10-31T08:23:31;1.52;;;0.40;;
25615;SDS011;13482;48.234;13.006;2023-10-31T08:25:59;0.68;;;0.30;;
25615;SDS011;13482;48.234;13.006;2023-10-31T08:28:26;1.10;;;0.50;;
25615;SDS011;13482;48.234;13.006;2023-10-31T08:30:55;0.75;;;0.32;;
25615;SDS011;13482;48.234;13.006;2023-10-31T08:33:23;0.60;;;0.32;;
25615;SDS011;13482;48.234;13.006;2023-10-31T08:35:51;0.73;;;0.32;;
25615;SDS011;13482;48.234;13.006;2023-10-31T08:38:18;0.50;;;0.30;;
25615;SDS011;13482;48.234;13.006;2023-10-31T08:40:56;0.38;;;0.10;;
25615;SDS011;13482;48.234;13.006;2023-10-31T08:43:26;0.60;;;0.30;;
25615;SDS011;13482;48.234;13.006;2023-10-31T08:45:53;0.38;;;0.20;;
25615;SDS011;13482;48.234;13.006;2023-10-31T08:48:21;0.80;;;0.30;;
25615;SDS011;13482;48.234;13.006;2023-10-31T08:50:49;0.68;;;0.30;;
25615;SDS011;13482;48.234;13.006;2023-10-31T08:53:16;0.68;;;0.30;;
25615;SDS011;13482;48.234;13.006;2023-10-31T08:55:45;0.60;;;0.30;;
25615;SDS011;13482;48.234;13.006;2023-10-31T08:58:13;0.73;;;0.30;;
25615;SDS011;13482;48.234;13.006;2023-10-31T09:00:41;0.82;;;0.15;;
25615;SDS011;13482;48.234;13.006;2023-10-31T09:03:09;0.57;;;0.10;;
25615;SDS011;13482;48.234;13.006;2023-10-31T09:05:37;0.88;;;0.20;;
25615;SDS011;13482;48.234;13.006;2023-10-31T09:08:05;0.20;;;0.10;;
25615;SDS011;13482;48.234;13.006;2023-10-31T09:10:35;0.40;;;0.10;;
25615;SDS011;13482;48.234;13.006;2023-10-31T09:13:05;0.25;;;0.10;;
25615;SDS011;13482;48.234;13.006;2023-10-31T09:15:32;0.80;;;0.10;;
25615;SDS011;13482;48.234;13.006;2023-10-31T09:18:00;0.52;;;0.20;;
25615;SDS011;13482;48.234;13.006;2023-10-31T09:20:28;0.20;;;0.10;;
25615;SDS011;13482;48.234;13.006;2023-10-31T09:22:58;0.73;;;0.20;;
25615;SDS011;13482;48.234;13.006;2023-10-31T09:25:25;0.28;;;0.10;;
25615;SDS011;13482;48.234;13.006;2023-10-31T09:27:53;0.55;;;0.10;;
25615;SDS011;13482;48.234;13.006;2023-10-31T09:30:20;0.28;;;0.20;;
25615;SDS011;13482;48.234;13.006;2023-10-31T09:32:48;1.15;;;0.20;;
25615;SDS011;13482;48.234;13.006;2023-10-31T09:35:16;0.77;;;0.30;;
25615;SDS011;13482;48.234;13.006;2023-10-31T09:37:43;0.45;;;0.17;;
25615;SDS011;13482;48.234;13.006;2023-10-31T09:42:46;0.52;;;0.32;;
25615;SDS011;13482;48.234;13.006;2023-10-31T09:45:16;1.10;;;0.47;;
25615;SDS011;13482;48.234;13.006;2023-10-31T09:47:45;3.05;;;2.78;;
25615;SDS011;13482;48.234;13.006;2023-10-31T09:50:12;2.40;;;2.20;;
25615;SDS011;13482;48.234;13.006;2023-10-31T09:52:41;2.58;;;2.33;;
25615;SDS011;13482;48.234;13.006;2023-10-31T09:55:08;5.55;;;5.05;;
25615;SDS011;13482;48.234;13.006;2023-10-31T09:57:36;24.67;;;22.38;;
25615;SDS011;13482;48.234;13.006;2023-10-31T10:00:04;95.30;;;85.70;;
25615;SDS011;13482;48.234;13.006;2023-10-31T10:02:33;54.95;;;46.13;;
25615;SDS011;13482;48.234;13.006;2023-10-31T10:05:01;46.72;;;40.95;;
25615;SDS011;13482;48.234;13.006;2023-10-31T10:07:30;21.73;;;19.50;;
25615;SDS011;13482;48.234;13.006;2023-10-31T10:10:02;12.75;;;11.40;;
25615;SDS011;13482;48.234;13.006;2023-10-31T10:12:31;7.50;;;6.30;;
25615;SDS011;13482;48.234;13.006;2023-10-31T10:15:00;4.28;;;3.08;;
25615;SDS011;13482;48.234;13.006;2023-10-31T10:17:27;3.67;;;2.10;;
25615;SDS011;13482;48.234;13.006;2023-10-31T10:20:07;3.47;;;1.23;;
25615;SDS011;13482;48.234;13.006;2023-10-31T10:22:38;2.10;;;0.90;;
25615;SDS011;13482;48.234;13.006;2023-10-31T10:25:09;0.93;;;0.50;;
25615;SDS011;13482;48.234;13.006;2023-10-31T10:27:47;1.23;;;0.50;;
25615;SDS011;13482;48.234;13.006;2023-10-31T10:30:15;0.85;;;0.30;;
25615;SDS011;13482;48.234;13.006;2023-10-31T10:32:43;0.45;;;0.10;;
25615;SDS011;13482;48.234;13.006;2023-10-31T10:35:11;0.57;;;0.22;;
25615;SDS011;13482;48.234;13.006;2023-10-31T10:37:39;1.90;;;0.98;;
25615;SDS011;13482;48.234;13.006;2023-10-31T10:40:07;2.85;;;1.30;;
25615;SDS011;13482;48.234;13.006;2023-10-31T10:42:42;1.65;;;1.00;;
25615;SDS011;13482;48.234;13.006;2023-10-31T10:45:16;1.38;;;0.80;;
25615;SDS011;13482;48.234;13.006;2023-10-31T10:47:47;0.90;;;0.50;;
25615;SDS011;13482;48.234;13.006;2023-10-31T10:50:18;0.95;;;0.47;;
25615;SDS011;13482;48.234;13.006;2023-10-31T10:52:49;2.28;;;0.82;;
25615;SDS011;13482;48.234;13.006;2023-10-31T10:55:28;0.98;;;0.50;;
25615;SDS011;13482;48.234;13.006;2023-10-31T10:58:05;1.23;;;0.60;;
25615;SDS011;13482;48.234;13.006;2023-10-31T11:00:58;0.90;;;0.45;;
25615;SDS011;13482;48.234;13.006;2023-10-31T11:03:26;0.93;;;0.38;;
25615;SDS011;13482;48.234;13.006;2023-10-31T11:05:57;0.90;;;0.50;;
25615;SDS011;13482;48.234;13.006;2023-10-31T11:08:25;1.33;;;0.55;;
25615;SDS011;13482;48.234;13.006;2023-10-31T11:10:53;2.08;;;0.90;;
25615;SDS011;13482;48.234;13.006;2023-10-31T11:13:22;2.35;;;1.05;;
25615;SDS011;13482;48.234;13.006;2023-10-31T11:15:52;1.30;;;0.75;;
25615;SDS011;13482;48.234;13.006;2023-10-31T11:18:26;1.98;;;0.70;;
25615;SDS011;13482;48.234;13.006;2023-10-31T11:20:54;1.33;;;1.00;;
25615;SDS011;13482;48.234;13.006;2023-10-31T11:23:22;1.05;;;0.57;;
25615;SDS011;13482;48.234;13.006;2023-10-31T11:25:50;0.95;;;0.60;;
25615;SDS011;13482;48.234;13.006;2023-10-31T11:28:21;1.23;;;0.40;;
25615;SDS011;13482;48.234;13.006;2023-10-31T11:30:49;1.27;;;0.45;;
25615;SDS011;13482;48.234;13.006;2023-10-31T11:33:19;1.17;;;0.70;;
25615;SDS011;13482;48.234;13.006;2023-10-31T11:35:51;1.60;;;1.00;;
25615;SDS011;13482;48.234;13.006;2023-10-31T11:38:36;0.98;;;0.80;;
25615;SDS011;13482;48.234;13.006;2023-10-31T11:41:05;1.92;;;0.70;;
25615;SDS011;13482;48.234;13.006;2023-10-31T11:43:35;2.13;;;0.93;;
25615;SDS011;13482;48.234;13.006;2023-10-31T11:46:23;0.90;;;0.50;;
25615;SDS011;13482;48.234;13.006;2023-10-31T11:48:52;1.83;;;0.60;;
25615;SDS011;13482;48.234;13.006;2023-10-31T11:51:26;1.00;;;0.50;;
25615;SDS011;13482;48.234;13.006;2023-10-31T11:53:54;2.25;;;0.43;;
25615;SDS011;13482;48.234;13.006;2023-10-31T11:56:23;1.20;;;0.50;;
25615;SDS011;13482;48.234;13.006;2023-10-31T11:59:03;0.47;;;0.30;;
25615;SDS011;13482;48.234;13.006;2023-10-31T12:01:43;1.23;;;0.50;;
25615;SDS011;13482;48.234;13.006;2023-10-31T12:04:21;1.05;;;0.40;;
25615;SDS011;13482;48.234;13.006;2023-10-31T12:06:57;1.70;;;0.60;;
25615;SDS011;13482;48.234;13.006;2023-10-31T12:09:27;1.17;;;0.50;;
25615;SDS011;13482;48.234;13.006;2023-10-31T12:11:57;1.55;;;0.63;;
25615;SDS011;13482;48.234;13.006;2023-10-31T12:14:25;1.02;;;0.50;;
25615;SDS011;13482;48.234;13.006;2023-10-31T12:16:52;1.48;;;0.30;;
25615;SDS011;13482;48.234;13.006;2023-10-31T12:19:20;1.42;;;0.55;;
25615;SDS011;13482;48.234;13.006;2023-10-31T12:21:48;1.42;;;0.45;;
25615;SDS011;13482;48.234;13.006;2023-10-31T12:24:17;1.40;;;0.80;;
25615;SDS011;13482;48.234;13.006;2023-10-31T12:26:45;0.90;;;0.50;;
25615;SDS011;13482;48.234;13.006;2023-10-31T12:29:17;0.90;;;0.50;;
25615;SDS011;13482;48.234;13.006;2023-10-31T12:31:51;1.20;;;0.52;;
25615;SDS011;13482;48.234;13.006;2023-10-31T12:34:22;1.17;;;0.30;;
25615;SDS011;13482;48.234;13.006;2023-10-31T12:36:51;1.25;;;0.50;;
25615;SDS011;13482;48.234;13.006;2023-10-31T12:39:21;1.02;;;0.52;;
25615;SDS011;13482;48.234;13.006;2023-10-31T12:41:53;1.20;;;0.50;;
25615;SDS011;13482;48.234;13.006;2023-10-31T12:44:25;2.30;;;0.50;;
25615;SDS011;13482;48.234;13.006;2023-10-31T12:46:55;0.80;;;0.57;;
25615;SDS011;13482;48.234;13.006;2023-10-31T12:49:23;1.67;;;0.50;;
25615;SDS011;13482;48.234;13.006;2023-10-31T12:52:01;0.95;;;0.60;;
25615;SDS011;13482;48.234;13.006;2023-10-31T12:54:35;0.95;;;0.52;;
25615;SDS011;13482;48.234;13.006;2023-10-31T12:57:05;1.23;;;0.50;;
25615;SDS011;13482;48.234;13.006;2023-10-31T12:59:35;1.15;;;0.50;;
25615;SDS011;13482;48.234;13.006;2023-10-31T13:02:07;1.13;;;0.40;;
25615;SDS011;13482;48.234;13.006;2023-10-31T13:04:37;1.45;;;0.55;;
25615;SDS011;13482;48.234;13.006;2023-10-31T13:07:05;2.50;;;0.57;;
25615;SDS011;13482;48.234;13.006;2023-10-31T13:09:35;0.60;;;0.30;;
25615;SDS011;13482;48.234;13.006;2023-10-31T13:12:09;1.55;;;0.60;;
25615;SDS011;13482;48.234;13.006;2023-10-31T13:14:39;1.48;;;0.50;;
25615;SDS011;13482;48.234;13.006;2023-10-31T13:17:08;0.85;;;0.45;;
25615;SDS011;13482;48.234;13.006;2023-10-31T13:19:36;1.08;;;0.40;;
25615;SDS011;13482;48.234;13.006;2023-10-31T13:22:03;1.95;;;0.50;;
25615;SDS011;13482;48.234;13.006;2023-10-31T13:24:31;1.70;;;0.60;;
25615;SDS011;13482;48.234;13.006;2023-10-31T13:26:58;1.40;;;0.60;;
25615;SDS011;13482;48.234;13.006;2023-10-31T13:29:26;0.82;;;0.40;;
25615;SDS011;13482;48.234;13.006;2023-10-31T13:31:54;0.98;;;0.52;;
25615;SDS011;13482;48.234;13.006;2023-10-31T13:34:22;2.60;;;0.98;;
25615;SDS011;13482;48.234;13.006;2023-10-31T13:36:50;2.90;;;1.05;;
25615;SDS011;13482;48.234;13.006;2023-10-31T13:39:20;1.77;;;0.77;;
25615;SDS011;13482;48.234;13.006;2023-10-31T13:41:48;1.67;;;0.77;;
25615;SDS011;13482;48.234;13.006;2023-10-31T13:44:16;1.70;;;0.60;;
25615;SDS011;13482;48.234;13.006;2023-10-31T13:46:43;1.80;;;0.60;;
25615;SDS011;13482;48.234;13.006;2023-10-31T13:49:11;1.10;;;0.50;;
25615;SDS011;13482;48.234;13.006;2023-10-31T13:51:39;1.83;;;0.50;;
25615;SDS011;13482;48.234;13.006;2023-10-31T13:54:06;1.40;;;0.40;;
25615;SDS011;13482;48.234;13.006;2023-10-31T13:56:34;1.00;;;0.47;;
25615;SDS011;13482;48.234;13.006;2023-10-31T13:59:02;1.35;;;0.60;;
25615;SDS011;13482;48.234;13.006;2023-10-31T14:01:29;1.33;;;0.52;;
25615;SDS011;13482;48.234;13.006;2023-10-31T14:03:57;0.88;;;0.40;;
25615;SDS011;13482;48.234;13.006;2023-10-31T14:06:25;1.38;;;0.90;;
25615;SDS011;13482;48.234;13.006;2023-10-31T14:08:57;1.98;;;0.80;;
25615;SDS011;13482;48.234;13.006;2023-10-31T14:11:26;1.30;;;0.60;;
25615;SDS011;13482;48.234;13.006;2023-10-31T14:13:55;2.05;;;0.50;;
25615;SDS011;13482;48.234;13.006;2023-10-31T14:16:25;1.33;;;0.38;;
25615;SDS011;13482;48.234;13.006;2023-10-31T14:18:53;1.45;;;0.70;;
25615;SDS011;13482;48.234;13.006;2023-10-31T14:21:24;1.17;;;0.68;;
25615;SDS011;13482;48.234;13.006;2023-10-31T14:23:52;1.63;;;0.70;;
25615;SDS011;13482;48.234;13.006;2023-10-31T14:26:29;0.95;;;0.50;;
25615;SDS011;13482;48.234;13.006;2023-10-31T14:29:00;1.27;;;0.50;;
25615;SDS011;13482;48.234;13.006;2023-10-31T14:31:28;1.10;;;0.50;;
25615;SDS011;13482;48.234;13.006;2023-10-31T14:33:55;1.25;;;0.50;;
25615;SDS011;13482;48.234;13.006;2023-10-31T14:36:24;0.82;;;0.47;;
25615;SDS011;13482;48.234;13.006;2023-10-31T14:38:52;1.17;;;0.43;;
25615;SDS011;13482;48.234;13.006;2023-10-31T14:41:19;1.95;;;0.47;;
25615;SDS011;13482;48.234;13.006;2023-10-31T14:43:47;1.10;;;0.40;;